createdAt,value
2018-09-20T00:01:09.955Z,97.60
2018-09-20T00:03:38.394Z,97.40
2018-09-20T00:06:06.853Z,97.30
2018-09-20T00:08:35.321Z,97.20
2018-09-20T00:11:03.789Z,97.10
2018-09-20T00:13:32.264Z,97.00
2018-09-20T00:16:00.725Z,96.90
2018-09-20T00:18:29.177Z,96.70
2018-09-20T00:20:57.616Z,96.50
2018-09-20T00:23:26.063Z,96.20
2018-09-20T00:25:54.509Z,96.00
2018-09-20T00:28:22.943Z,95.90
2018-09-20T00:30:51.391Z,96.00
2018-09-20T00:33:19.866Z,96.10
2018-09-20T00:35:48.285Z,96.30
2018-09-20T00:38:16.765Z,96.40
2018-09-20T00:40:45.197Z,96.50
2018-09-20T00:43:13.607Z,96.50
2018-09-20T00:45:42.092Z,96.60
2018-09-20T00:48:10.514Z,97.10
2018-09-20T00:50:38.936Z,97.10
2018-09-20T00:53:07.464Z,97.40
2018-09-20T00:55:35.904Z,97.70
2018-09-20T00:58:04.355Z,97.90
2018-09-20T01:00:38.394Z,98.10
2018-09-20T01:03:06.900Z,98.20
2018-09-20T01:05:35.336Z,98.30
2018-09-20T01:08:03.776Z,98.50
2018-09-20T01:10:32.254Z,98.40
2018-09-20T01:13:00.694Z,98.80
2018-09-20T01:15:29.112Z,98.60
2018-09-20T01:17:57.541Z,98.70
2018-09-20T01:20:26.028Z,98.80
2018-09-20T01:22:54.468Z,99.00
2018-09-20T01:25:22.950Z,99.00
2018-09-20T01:27:51.387Z,99.10
2018-09-20T01:30:19.849Z,99.20
2018-09-20T01:32:48.332Z,99.30
2018-09-20T01:35:16.814Z,99.40
2018-09-20T01:37:45.229Z,99.40
2018-09-20T01:40:13.661Z,99.60
2018-09-20T01:42:42.077Z,99.70
2018-09-20T01:45:10.499Z,99.90
2018-09-20T01:47:38.937Z,99.90
2018-09-20T01:50:07.417Z,99.90
2018-09-20T01:52:35.843Z,99.90
2018-09-20T01:55:04.371Z,99.90
2018-09-20T01:57:32.787Z,99.90
2018-09-20T02:00:01.228Z,99.90
2018-09-20T02:02:29.674Z,99.90
2018-09-20T02:04:58.101Z,99.90
2018-09-20T02:07:26.522Z,99.90
2018-09-20T02:09:54.938Z,99.90
2018-09-20T02:12:23.419Z,99.90
2018-09-20T02:14:51.839Z,99.90
2018-09-20T02:17:20.314Z,99.90
2018-09-20T02:19:48.742Z,99.90
2018-09-20T02:22:17.157Z,99.90
2018-09-20T02:24:45.559Z,99.90
2018-09-20T02:27:13.978Z,99.90
2018-09-20T02:29:42.415Z,99.90
2018-09-20T02:32:10.837Z,99.90
2018-09-20T02:34:39.250Z,99.80
2018-09-20T02:37:07.681Z,99.70
2018-09-20T02:39:36.210Z,99.60
2018-09-20T02:42:04.690Z,99.60
2018-09-20T02:44:33.131Z,99.60
2018-09-20T02:47:01.559Z,99.60
2018-09-20T02:49:29.986Z,99.60
2018-09-20T02:51:58.439Z,99.50
2018-09-20T02:54:26.865Z,99.40
2018-09-20T02:56:55.316Z,99.20
2018-09-20T02:59:23.758Z,99.20
2018-09-20T03:01:52.194Z,99.20
2018-09-20T03:04:20.644Z,99.20
2018-09-20T03:06:49.078Z,99.20
2018-09-20T03:09:17.490Z,99.20
2018-09-20T03:11:45.928Z,99.20
2018-09-20T03:14:14.369Z,99.30
2018-09-20T03:16:42.816Z,99.40
2018-09-20T03:19:11.291Z,99.50
2018-09-20T03:21:39.738Z,99.50
2018-09-20T03:24:08.204Z,99.50
2018-09-20T03:26:36.657Z,99.60
2018-09-20T03:29:05.217Z,99.70
2018-09-20T03:31:33.667Z,99.70
2018-09-20T03:34:02.159Z,99.80
2018-09-20T03:36:30.579Z,99.90
2018-09-20T03:38:59.038Z,99.90
2018-09-20T03:41:27.513Z,99.90
2018-09-20T03:43:55.957Z,99.90
2018-09-20T03:46:24.403Z,99.90
2018-09-20T03:48:52.847Z,99.90
2018-09-20T03:51:21.253Z,99.90
2018-09-20T03:53:49.692Z,99.90
2018-09-20T03:56:18.104Z,99.90
2018-09-20T03:58:46.580Z,99.90
2018-09-20T04:01:14.998Z,99.90
2018-09-20T04:03:43.478Z,99.90
2018-09-20T04:06:11.908Z,99.90
2018-09-20T04:08:40.350Z,99.90
2018-09-20T04:11:08.795Z,99.90
2018-09-20T04:13:37.223Z,99.90
2018-09-20T04:16:05.656Z,99.90
2018-09-20T04:18:34.102Z,99.90
2018-09-20T04:21:02.568Z,99.90
2018-09-20T04:23:31.008Z,99.90
2018-09-20T04:25:59.466Z,99.90
2018-09-20T04:28:27.911Z,99.90
2018-09-20T04:30:56.340Z,99.90
2018-09-20T04:33:24.789Z,99.90
2018-09-20T04:35:53.250Z,99.90
2018-09-20T04:38:21.712Z,99.90
2018-09-20T04:40:50.262Z,99.90
2018-09-20T04:43:18.668Z,99.90
2018-09-20T04:45:47.106Z,99.90
2018-09-20T04:48:16.236Z,99.90
2018-09-20T04:50:44.676Z,99.90
2018-09-20T04:53:13.133Z,99.90
2018-09-20T04:55:41.600Z,99.90
2018-09-20T04:58:10.068Z,99.90
2018-09-20T05:00:38.540Z,99.90
2018-09-20T05:03:07.102Z,99.90
2018-09-20T05:05:36.454Z,99.90
2018-09-20T05:08:06.184Z,99.90
2018-09-20T05:10:34.674Z,99.90
2018-09-20T05:13:03.546Z,99.90
2018-09-20T05:15:32.358Z,99.90
2018-09-20T05:18:02.337Z,99.90
2018-09-20T05:20:30.762Z,99.90
2018-09-20T05:23:00.202Z,99.90
2018-09-20T05:25:29.173Z,99.90
2018-09-20T05:27:57.823Z,99.90
2018-09-20T05:30:26.229Z,99.90
2018-09-20T05:32:56.152Z,99.90
2018-09-20T05:35:24.629Z,99.90
2018-09-20T05:37:53.019Z,99.90
2018-09-20T05:47:14.255Z,99.90
2018-09-20T05:49:42.720Z,99.90
2018-09-20T05:52:11.183Z,99.90
2018-09-20T05:54:40.390Z,99.90
2018-09-20T05:57:08.823Z,99.90
2018-09-20T05:59:37.311Z,99.90
2018-09-20T06:02:06.465Z,99.90
2018-09-20T06:04:34.936Z,99.90
2018-09-20T06:07:03.431Z,99.90
2018-09-20T06:09:31.929Z,99.90
2018-09-20T06:12:00.374Z,99.90
2018-09-20T06:14:28.790Z,99.90
2018-09-20T06:16:57.233Z,99.90
2018-09-20T06:19:25.715Z,99.90
2018-09-20T06:21:54.235Z,99.90
2018-09-20T06:24:22.658Z,99.90
2018-09-20T06:26:51.074Z,99.90
2018-09-20T06:29:19.480Z,99.90
2018-09-20T06:31:47.914Z,99.90
2018-09-20T06:34:16.353Z,99.50
2018-09-20T06:36:44.775Z,99.40
2018-09-20T06:39:13.634Z,99.30
2018-09-20T06:41:42.660Z,99.30
2018-09-20T06:44:11.228Z,99.20
2018-09-20T06:46:39.888Z,99.20
2018-09-20T06:49:08.304Z,99.10
2018-09-20T06:51:36.714Z,99.00
2018-09-20T06:54:05.183Z,98.80
2018-09-20T06:56:33.653Z,98.60
2018-09-20T06:59:02.070Z,98.50
2018-09-20T07:01:30.524Z,98.50
2018-09-20T07:03:58.968Z,98.30
2018-09-20T07:06:27.386Z,98.10
2018-09-20T07:08:55.851Z,98.00
2018-09-20T07:11:24.285Z,97.80
2018-09-20T07:13:52.730Z,97.80
2018-09-20T07:16:21.162Z,97.70
2018-09-20T07:18:49.663Z,97.60
2018-09-20T07:21:18.137Z,97.40
2018-09-20T07:23:46.584Z,97.00
2018-09-20T07:26:15.020Z,97.00
2018-09-20T07:28:43.487Z,96.80
2018-09-20T07:31:12.004Z,96.70
2018-09-20T07:33:40.477Z,96.40
2018-09-20T07:36:08.935Z,96.10
2018-09-20T07:38:37.445Z,96.00
2018-09-20T07:41:05.906Z,95.60
2018-09-20T07:43:34.407Z,95.40
2018-09-20T07:46:02.827Z,95.20
2018-09-20T07:48:31.288Z,95.40
2018-09-20T07:50:59.707Z,95.30
2018-09-20T07:53:28.110Z,95.20
2018-09-20T07:55:56.551Z,95.40
2018-09-20T07:58:24.991Z,95.60
2018-09-20T08:00:53.515Z,95.60
2018-09-20T08:03:22.126Z,95.50
2018-09-20T08:05:50.613Z,95.00
2018-09-20T08:08:19.288Z,94.50
2018-09-20T08:10:47.755Z,94.20
2018-09-20T08:13:16.246Z,93.20
2018-09-20T08:15:44.730Z,92.60
2018-09-20T08:18:13.238Z,91.30
2018-09-20T08:20:41.676Z,91.90
2018-09-20T08:23:10.104Z,92.70
2018-09-20T08:25:38.989Z,92.60
2018-09-20T08:28:07.627Z,90.60
2018-09-20T08:30:36.130Z,88.70
2018-09-20T08:33:04.633Z,88.30
2018-09-20T08:35:33.058Z,89.10
2018-09-20T08:38:01.524Z,90.30
2018-09-20T08:40:29.974Z,90.70
2018-09-20T08:42:58.412Z,91.40
2018-09-20T08:45:26.830Z,91.90
2018-09-20T08:47:55.281Z,91.90
2018-09-20T08:50:23.708Z,90.70
2018-09-20T08:52:52.169Z,90.70
2018-09-20T08:55:20.592Z,90.90
2018-09-20T08:57:55.483Z,91.30
2018-09-20T09:00:24.275Z,91.70
2018-09-20T09:02:52.757Z,91.80
2018-09-20T09:05:21.281Z,91.30
2018-09-20T09:07:50.005Z,90.50
2018-09-20T09:10:18.521Z,88.70
2018-09-20T09:12:47.049Z,88.10
2018-09-20T09:15:15.561Z,87.90
2018-09-20T09:17:44.039Z,90.00
2018-09-20T09:20:12.566Z,90.60
2018-09-20T09:22:42.197Z,90.30
2018-09-20T09:25:10.661Z,89.20
2018-09-20T09:27:39.077Z,89.70
2018-09-20T09:30:07.585Z,90.10
2018-09-20T09:32:36.070Z,90.90
2018-09-20T09:35:04.592Z,90.60
2018-09-20T09:37:33.114Z,90.10
2018-09-20T09:40:01.628Z,87.10
2018-09-20T09:42:30.117Z,82.40
2018-09-20T09:44:58.584Z,81.30
2018-09-20T09:47:27.033Z,81.50
2018-09-20T09:49:55.472Z,80.80
2018-09-20T09:52:24.088Z,77.40
2018-09-20T09:54:52.614Z,76.90
2018-09-20T09:57:21.021Z,75.70
2018-09-20T09:59:49.513Z,72.10
2018-09-20T10:02:17.942Z,71.30
2018-09-20T10:04:46.408Z,75.20
2018-09-20T10:07:14.909Z,79.20
2018-09-20T10:09:43.320Z,81.60
2018-09-20T10:12:11.790Z,80.90
2018-09-20T10:14:40.230Z,79.80
2018-09-20T10:17:08.716Z,79.70
2018-09-20T10:19:37.158Z,78.70
2018-09-20T10:22:05.627Z,76.90
2018-09-20T10:24:34.088Z,75.10
2018-09-20T10:27:02.538Z,67.90
2018-09-20T10:29:30.976Z,60.40
2018-09-20T10:31:59.430Z,61.10
2018-09-20T10:34:27.850Z,62.80
2018-09-20T10:36:56.315Z,63.60
2018-09-20T10:39:24.731Z,63.50
2018-09-20T10:41:53.242Z,61.40
2018-09-20T10:44:21.751Z,63.20
2018-09-20T10:46:50.207Z,63.30
2018-09-20T10:49:18.653Z,63.30
2018-09-20T10:51:47.090Z,60.50
2018-09-20T10:54:15.537Z,59.10
2018-09-20T10:56:43.962Z,61.10
2018-09-20T10:59:12.435Z,58.00
2018-09-20T11:01:40.953Z,57.20
2018-09-20T11:04:09.400Z,58.90
2018-09-20T11:06:37.833Z,59.60
2018-09-20T11:09:08.875Z,60.90
2018-09-20T11:11:37.405Z,58.60
2018-09-20T11:14:06.068Z,56.30
2018-09-20T11:16:34.512Z,57.00
2018-09-20T11:19:02.975Z,59.30
2018-09-20T11:21:31.442Z,62.20
2018-09-20T11:23:59.873Z,64.00
2018-09-20T11:26:28.311Z,63.30
2018-09-20T11:28:56.778Z,59.40
2018-09-20T11:31:25.257Z,61.90
2018-09-20T11:33:53.743Z,65.30
2018-09-20T11:36:22.296Z,67.20
2018-09-20T11:38:50.724Z,68.60
2018-09-20T11:41:19.237Z,66.30
2018-09-20T11:43:48.129Z,59.50
2018-09-20T11:46:16.548Z,59.20
2018-09-20T11:48:45.019Z,58.50
2018-09-20T11:51:13.487Z,59.10
2018-09-20T11:53:41.924Z,59.50
2018-09-20T11:56:10.385Z,55.50
2018-09-20T11:58:38.847Z,57.00
2018-09-20T12:01:07.294Z,55.10
2018-09-20T12:03:35.806Z,53.30
2018-09-20T12:06:04.290Z,53.80
2018-09-20T12:08:32.803Z,53.80
2018-09-20T12:11:01.206Z,51.40
2018-09-20T12:13:29.662Z,50.70
2018-09-20T12:15:58.112Z,51.20
2018-09-20T12:18:26.560Z,51.40
2018-09-20T12:20:55.016Z,49.90
2018-09-20T12:23:23.454Z,50.00
2018-09-20T12:25:51.947Z,52.90
2018-09-20T12:28:20.381Z,56.90
2018-09-20T12:30:48.855Z,58.70
2018-09-20T12:33:17.374Z,58.00
2018-09-20T12:35:45.881Z,57.20
2018-09-20T12:38:14.342Z,56.40
2018-09-20T12:40:42.776Z,56.10
2018-09-20T12:43:11.259Z,56.40
2018-09-20T12:45:39.713Z,58.70
2018-09-20T12:48:08.192Z,58.80
2018-09-20T12:50:36.621Z,59.90
2018-09-20T12:53:05.243Z,58.30
2018-09-20T12:55:33.739Z,58.20
2018-09-20T12:58:02.186Z,58.20
2018-09-20T13:00:30.649Z,57.80
2018-09-20T13:02:59.164Z,58.90
2018-09-20T13:05:27.779Z,58.90
2018-09-20T13:07:56.231Z,58.30
2018-09-20T13:10:24.667Z,58.70
2018-09-20T13:12:53.139Z,59.70
2018-09-20T13:15:21.567Z,59.60
2018-09-20T13:17:50.001Z,59.40
2018-09-20T13:20:18.527Z,58.60
2018-09-20T13:22:46.977Z,57.50
2018-09-20T13:25:15.576Z,57.30
2018-09-20T13:27:44.195Z,57.30
2018-09-20T13:30:12.658Z,58.30
2018-09-20T13:32:41.107Z,58.00
2018-09-20T13:35:09.578Z,58.10
2018-09-20T13:37:38.091Z,58.20
2018-09-20T13:40:06.608Z,59.30
2018-09-20T13:42:35.066Z,59.20
2018-09-20T13:45:03.602Z,59.60
2018-09-20T13:47:32.101Z,60.80
2018-09-20T13:50:00.551Z,61.30
2018-09-20T13:52:29.041Z,62.70
2018-09-20T13:55:04.315Z,63.60
2018-09-20T13:57:32.751Z,63.70
2018-09-20T14:00:01.279Z,63.80
2018-09-20T14:02:29.731Z,62.00
2018-09-20T14:05:05.021Z,59.50
2018-09-20T14:07:33.595Z,58.30
2018-09-20T14:10:02.037Z,56.40
2018-09-20T14:12:30.507Z,55.40
2018-09-20T14:14:58.954Z,55.80
2018-09-20T14:17:27.412Z,56.80
2018-09-20T14:19:55.852Z,58.60
2018-09-20T14:22:24.274Z,59.20
2018-09-20T14:24:52.734Z,58.30
2018-09-20T14:27:21.208Z,58.00
2018-09-20T14:29:49.684Z,58.80
2018-09-20T14:32:18.120Z,60.00
2018-09-20T14:34:46.604Z,60.40
2018-09-20T14:37:15.040Z,60.30
2018-09-20T14:39:43.480Z,61.10
2018-09-20T14:42:11.950Z,61.00
2018-09-20T14:44:40.411Z,60.50
2018-09-20T14:47:08.966Z,59.80
2018-09-20T14:49:37.523Z,59.20
2018-09-20T14:52:06.077Z,59.40
2018-09-20T14:54:34.504Z,59.20
2018-09-20T14:57:03.000Z,59.30
2018-09-20T14:59:31.436Z,59.50
2018-09-20T15:01:59.882Z,59.50
2018-09-20T15:04:28.424Z,59.70
2018-09-20T15:06:56.862Z,59.60
2018-09-20T15:09:25.324Z,59.80
2018-09-20T15:11:53.834Z,59.70
2018-09-20T15:14:22.302Z,60.80
2018-09-20T15:16:50.764Z,61.90
2018-09-20T15:19:19.326Z,63.10
2018-09-20T15:21:47.797Z,64.00
2018-09-20T15:24:16.305Z,64.20
2018-09-20T15:26:44.768Z,64.20
2018-09-20T15:29:13.236Z,63.90
2018-09-20T15:31:41.762Z,63.30
2018-09-20T15:34:10.238Z,63.10
2018-09-20T15:36:38.756Z,63.40
2018-09-20T15:39:09.280Z,63.60
2018-09-20T15:41:37.758Z,64.20
2018-09-20T15:44:06.217Z,64.50
2018-09-20T15:46:34.716Z,65.00
2018-09-20T15:49:03.474Z,64.90
2018-09-20T15:51:31.966Z,65.30
2018-09-20T15:54:00.506Z,65.50
2018-09-20T15:56:28.979Z,65.50
2018-09-20T15:58:57.456Z,65.30
2018-09-20T16:01:25.915Z,64.90
2018-09-20T16:03:54.347Z,65.00
2018-09-20T16:06:22.816Z,65.50
2018-09-20T16:08:51.905Z,65.90
2018-09-20T16:11:20.342Z,66.70
2018-09-20T16:13:48.822Z,67.40
2018-09-20T16:16:17.280Z,67.70
2018-09-20T16:18:45.780Z,67.40
2018-09-20T16:21:14.286Z,66.70
2018-09-20T16:23:42.746Z,66.30
2018-09-20T16:26:11.210Z,66.00
2018-09-20T16:28:56.431Z,66.00
2018-09-20T16:32:39.232Z,66.00
2018-09-20T16:36:21.681Z,66.40
2018-09-20T16:39:00.737Z,66.90
2018-09-20T16:41:34.610Z,67.30
2018-09-20T16:44:03.181Z,67.40
2018-09-20T16:46:31.784Z,67.60
2018-09-20T16:49:00.410Z,67.80
2018-09-20T16:51:28.893Z,68.10
2018-09-20T16:53:57.372Z,68.40
2018-09-20T16:56:25.809Z,68.70
2018-09-20T16:58:54.777Z,69.00
2018-09-20T17:01:23.657Z,69.20
2018-09-20T17:03:52.125Z,69.60
2018-09-20T17:06:20.929Z,69.80
2018-09-20T17:08:50.009Z,69.90
2018-09-20T17:11:18.427Z,70.10
2018-09-20T17:13:47.077Z,70.30
2018-09-20T17:16:15.622Z,70.50
2018-09-20T17:18:44.028Z,70.90
2018-09-20T17:21:12.494Z,71.10
2018-09-20T17:23:41.146Z,71.50
2018-09-20T17:26:09.753Z,71.80
2018-09-20T17:28:38.536Z,71.80
2018-09-20T17:31:07.288Z,71.70
2018-09-20T17:33:35.731Z,71.70
2018-09-20T17:36:04.230Z,71.90
2018-09-20T17:38:33.692Z,72.00
2018-09-20T17:41:39.606Z,72.00
2018-09-20T17:44:08.879Z,72.10
2018-09-20T17:46:37.355Z,72.30
2018-09-20T17:49:05.926Z,72.40
2018-09-20T17:51:34.841Z,72.80
2018-09-20T17:54:03.534Z,73.10
2018-09-20T17:56:32.440Z,73.40
2018-09-20T17:59:01.271Z,73.80
2018-09-20T18:01:29.757Z,74.20
2018-09-20T18:03:58.220Z,74.60
2018-09-20T18:06:26.677Z,75.00
2018-09-20T18:08:55.139Z,75.40
2018-09-20T18:11:23.633Z,75.60
2018-09-20T18:13:52.093Z,75.90
2018-09-20T18:16:20.593Z,76.00
2018-09-20T18:18:49.098Z,76.00
2018-09-20T18:21:17.597Z,76.00
2018-09-20T18:23:46.048Z,76.20
2018-09-20T18:26:14.527Z,76.40
2018-09-20T18:28:43.007Z,76.70
2018-09-20T18:31:11.457Z,76.80
2018-09-20T18:33:39.975Z,77.00
2018-09-20T18:36:08.485Z,77.20
2018-09-20T18:38:37.057Z,77.30
2018-09-20T18:41:05.563Z,77.50
2018-09-20T18:43:34.022Z,77.60
2018-09-20T18:46:02.500Z,77.80
2018-09-20T18:48:30.985Z,78.20
2018-09-20T18:50:59.462Z,78.60
2018-09-20T18:53:27.900Z,79.00
2018-09-20T18:55:56.355Z,79.30
2018-09-20T18:58:24.833Z,79.40
2018-09-20T19:00:53.836Z,79.50
2018-09-20T19:03:23.219Z,79.70
2018-09-20T19:05:51.688Z,79.80
2018-09-20T19:08:20.504Z,79.90
2018-09-20T19:10:49.076Z,80.00
2018-09-20T19:13:17.602Z,80.20
2018-09-20T19:15:46.152Z,80.50
2018-09-20T19:18:14.626Z,80.80
2018-09-20T19:20:43.145Z,80.90
2018-09-20T19:23:11.653Z,81.20
2018-09-20T19:25:40.184Z,81.60
2018-09-20T19:28:08.783Z,82.00
2018-09-20T19:30:37.232Z,82.00
2018-09-20T19:33:05.730Z,82.40
2018-09-20T19:35:34.258Z,82.60
2018-09-20T19:38:02.769Z,82.90
2018-09-20T19:40:31.256Z,83.30
2018-09-20T19:42:59.730Z,83.50
2018-09-20T19:45:28.203Z,83.60
2018-09-20T19:47:56.640Z,83.70
2018-09-20T19:50:25.086Z,83.80
2018-09-20T19:52:53.570Z,83.70
2018-09-20T19:55:22.063Z,83.90
2018-09-20T19:57:50.550Z,83.90
2018-09-20T20:00:19.073Z,83.90
2018-09-20T20:02:47.544Z,83.80
2018-09-20T20:05:16.015Z,83.80
2018-09-20T20:07:44.549Z,83.90
2018-09-20T20:10:12.989Z,84.00
2018-09-20T20:12:41.431Z,83.90
2018-09-20T20:15:09.878Z,84.00
2018-09-20T20:17:38.354Z,84.00
2018-09-20T20:20:06.950Z,84.10
2018-09-20T20:22:35.513Z,84.10
2018-09-20T20:25:04.063Z,84.10
2018-09-20T20:27:32.523Z,84.10
2018-09-20T20:30:00.970Z,84.30
2018-09-20T20:32:29.458Z,84.30
2018-09-20T20:34:57.903Z,84.20
2018-09-20T20:37:26.407Z,84.20
2018-09-20T20:39:55.005Z,84.20
2018-09-20T20:42:23.397Z,84.30
2018-09-20T20:44:51.901Z,84.40
2018-09-20T20:47:20.368Z,84.60
2018-09-20T20:49:48.806Z,84.60
2018-09-20T20:52:17.269Z,85.10
2018-09-20T20:54:45.735Z,84.80
2018-09-20T20:57:14.194Z,84.80
2018-09-20T20:59:45.514Z,84.90
2018-09-20T21:02:13.926Z,85.00
2018-09-20T21:04:42.362Z,85.10
2018-09-20T21:07:10.825Z,85.10
2018-09-20T21:09:39.317Z,85.20
2018-09-20T21:12:07.784Z,85.00
2018-09-20T21:14:36.253Z,84.60
2018-09-20T21:17:04.740Z,85.30
2018-09-20T21:19:33.181Z,84.40
2018-09-20T21:22:01.641Z,84.10
2018-09-20T21:24:30.100Z,84.00
2018-09-20T21:26:58.555Z,84.00
2018-09-20T21:29:27.007Z,83.90
2018-09-20T21:31:55.428Z,84.00
2018-09-20T21:34:23.905Z,83.80
2018-09-20T21:36:52.441Z,84.00
2018-09-20T21:39:20.871Z,83.80
2018-09-20T21:41:49.351Z,83.80
2018-09-20T21:44:17.785Z,83.70
2018-09-20T21:46:46.231Z,83.90
2018-09-20T21:49:14.724Z,83.80
2018-09-20T21:51:43.169Z,83.80
2018-09-20T21:54:11.644Z,83.80
2018-09-20T21:56:40.125Z,84.00
2018-09-20T21:59:08.584Z,84.10
2018-09-20T22:01:42.417Z,84.40
2018-09-20T22:04:10.900Z,84.50
2018-09-20T22:06:39.396Z,84.60
2018-09-20T22:09:10.228Z,84.60
2018-09-20T22:11:39.282Z,84.60
2018-09-20T22:14:07.818Z,84.60
2018-09-20T22:16:36.544Z,84.60
2018-09-20T22:19:05.128Z,84.70
2018-09-20T22:21:33.918Z,84.90
2018-09-20T22:24:02.392Z,85.00
2018-09-20T22:26:30.919Z,85.20
2018-09-20T22:28:59.431Z,85.20
2018-09-20T22:31:27.944Z,85.30
2018-09-20T22:33:56.416Z,85.60
2018-09-20T22:36:24.895Z,85.80
2018-09-20T22:38:53.335Z,86.00
2018-09-20T22:41:21.809Z,86.20
2018-09-20T22:43:50.295Z,86.40
2018-09-20T22:46:18.903Z,86.70
2018-09-20T22:48:47.426Z,87.70
2018-09-20T22:51:15.925Z,87.10
2018-09-20T22:53:44.467Z,87.50
2018-09-20T22:56:12.901Z,87.70
2018-09-20T22:58:41.379Z,88.00
2018-09-20T23:01:14.060Z,88.30
2018-09-20T23:03:42.867Z,89.40
2018-09-20T23:06:11.355Z,88.80
2018-09-20T23:08:39.818Z,88.80
2018-09-20T23:11:08.298Z,88.80
2018-09-20T23:13:36.764Z,89.00
2018-09-20T23:16:05.241Z,89.00
2018-09-20T23:18:33.731Z,89.00
2018-09-20T23:21:02.205Z,89.10
2018-09-20T23:23:30.678Z,89.20
2018-09-20T23:25:59.122Z,89.80
2018-09-20T23:28:27.602Z,89.10
2018-09-20T23:30:56.083Z,89.20
2018-09-20T23:33:24.567Z,89.20
2018-09-20T23:35:53.167Z,89.00
2018-09-20T23:38:21.691Z,88.90
2018-09-20T23:40:50.164Z,89.10
2018-09-20T23:43:18.583Z,89.10
2018-09-20T23:45:47.013Z,89.00
2018-09-20T23:48:15.458Z,88.90
2018-09-20T23:50:43.917Z,88.90
2018-09-20T23:53:12.330Z,88.80
2018-09-20T23:55:40.775Z,88.80
2018-09-20T23:58:09.249Z,88.80
